Time;durP1;ratioP1;P1;durP2;ratioP2;P2;SDS_P1;SDS_P2;PMS_P1;PMS_P2;Temp;Humidity;BMP_temperature;BMP_pressure;BME280_temperature;BME280_humidity;BME280_pressure;Samples;Min_cycle;Max_cycle;Signal;HPM_P1;HPM_P2
2022/09/29 00:00:18;;;;;;;10.80;3.30;;;;;;;8.41;79.53;97814.93;105070;1271;74362;-25
2022/09/29 00:02:44;;;;;;;6.10;1.80;;;;;;;8.24;79.46;97815.48;104816;1274;62990;-25
2022/09/29 00:05:12;;;;;;;8.20;2.50;;;;;;;7.98;79.82;97816.39;104940;1274;61679;-25
2022/09/29 00:07:39;;;;;;;14.20;2.40;;;;;;;7.72;80.32;97813.73;104773;1271;75220;-24
2022/09/29 00:10:06;;;;;;;4.30;1.60;;;;;;;7.52;80.95;97809.94;104824;1272;76717;-24
2022/09/29 00:12:33;;;;;;;4.90;1.20;;;;;;;7.90;80.92;97812.80;104951;1271;75410;-25
2022/09/29 00:15:00;;;;;;;10.50;2.80;;;;;;;8.42;79.81;97812.29;104984;1274;62050;-25
2022/09/29 00:17:27;;;;;;;11.80;2.20;;;;;;;8.46;79.60;97816.91;104797;1274;61755;-25
2022/09/29 00:19:54;;;;;;;11.50;2.20;;;;;;;8.27;79.81;97813.31;104902;1274;76587;-25
2022/09/29 00:22:21;;;;;;;8.60;2.10;;;;;;;8.03;80.19;97817.02;104624;1274;76816;-24
2022/09/29 00:24:48;;;;;;;11.10;1.80;;;;;;;7.78;80.76;97815.04;105053;1274;75485;-25
2022/09/29 00:27:16;;;;;;;4.40;1.60;;;;;;;7.60;81.35;97817.52;104937;1274;64526;-24
2022/09/29 00:29:43;;;;;;;9.10;1.50;;;;;;;8.06;81.15;97813.85;104717;1274;63125;-24
2022/09/29 00:32:10;;;;;;;6.90;1.80;;;;;;;8.60;79.76;97814.08;104616;1271;76296;-25
2022/09/29 00:34:38;;;;;;;7.80;1.90;;;;;;;8.64;79.06;97819.77;104768;1271;75909;-23
2022/09/29 00:37:04;;;;;;;7.40;1.80;;;;;;;8.46;79.01;97819.16;104952;1274;74264;-24
2022/09/29 00:39:31;;;;;;;6.10;2.20;;;;;;;8.21;79.35;97816.59;104724;1272;63014;-24
2022/09/29 00:41:58;;;;;;;5.20;2.30;;;;;;;7.95;79.88;97819.56;104571;1274;62040;-24
2022/09/29 00:45:03;;;;;;;10.90;1.90;;;;;;;7.75;80.41;97825.56;104734;1274;76422;-24
2022/09/29 00:47:31;;;;;;;5.80;1.70;;;;;;;8.27;80.28;97826.89;105050;1271;76968;-24
2022/09/29 00:50:12;;;;;;;6.90;2.10;;;;;;;8.67;79.46;97831.26;104625;1274;74146;-24
2022/09/29 00:52:41;;;;;;;3.90;1.80;;;;;;;8.65;79.02;97839.77;104842;1274;62835;-24
2022/09/29 00:55:19;;;;;;;4.30;1.80;;;;;;;8.47;79.13;97841.09;105147;1271;61640;-24
2022/09/29 00:58:01;;;;;;;6.00;1.80;;;;;;;8.22;79.52;97843.44;104891;1274;76499;-24
2022/09/29 01:00:28;;;;;;;8.30;1.90;;;;;;;7.96;80.12;97841.61;104760;1274;77211;-24
2022/09/29 01:03:07;;;;;;;4.70;1.50;;;;;;;7.77;80.72;97841.11;104833;1273;74339;-24
2022/09/29 01:05:40;;;;;;;7.40;1.50;;;;;;;8.23;80.56;97841.46;104596;1272;63177;-24
2022/09/29 01:08:12;;;;;;;4.00;1.80;;;;;;;8.75;79.33;97841.45;104674;1274;63336;-26
2022/09/29 01:10:39;;;;;;;5.70;1.80;;;;;;;8.76;78.75;97841.34;104546;1274;75802;-25
2022/09/29 01:13:06;;;;;;;7.00;2.20;;;;;;;8.55;78.82;97836.02;104978;1274;76859;-25
2022/09/29 01:15:34;;;;;;;14.00;2.50;;;;;;;8.28;79.17;97841.73;104650;1274;75696;-24
2022/09/29 01:18:01;;;;;;;8.70;2.00;;;;;;;8.02;79.64;97845.13;104843;1274;63004;-24
2022/09/29 01:20:29;;;;;;;2.80;1.10;;;;;;;7.80;80.27;97846.38;104620;1271;63011;-24
2022/09/29 01:23:14;;;;;;;3.40;1.90;;;;;;;8.17;80.69;97841.85;104755;1274;75447;-24
2022/09/29 01:26:07;;;;;;;3.60;2.00;;;;;;;8.69;79.40;97835.76;104782;1274;75342;-25
2022/09/29 01:28:53;;;;;;;7.00;2.40;;;;;;;8.66;78.73;97835.86;104518;1274;74655;-24
2022/09/29 01:31:51;;;;;;;11.50;2.70;;;;;;;8.42;79.14;97837.71;104850;1274;62009;-24
2022/09/29 01:34:43;;;;;;;8.20;3.10;;;;;;;8.10;79.58;97837.28;104810;1274;61748;-24
2022/09/29 01:37:16;;;;;;;6.60;3.70;;;;;;;7.81;80.19;97841.77;104799;1274;75031;-24
2022/09/29 01:39:50;;;;;;;11.40;1.70;;;;;;;7.59;80.77;97847.48;104838;1274;75206;-24
2022/09/29 01:42:21;;;;;;;7.00;1.90;;;;;;;8.04;80.67;97841.79;104580;1271;74418;-24
2022/09/29 01:44:54;;;;;;;6.90;2.30;;;;;;;8.59;79.54;97839.48;104600;1274;62989;-24
2022/09/29 01:47:26;;;;;;;9.50;2.80;;;;;;;8.63;78.87;97842.55;104737;1274;61128;-24
2022/09/29 01:50:10;;;;;;;6.20;2.50;;;;;;;8.40;78.86;97852.39;104732;1271;76279;-24
2022/09/29 01:52:42;;;;;;;5.40;2.60;;;;;;;8.07;79.28;97850.00;104871;1274;76752;-24
2022/09/29 01:55:11;;;;;;;9.50;2.50;;;;;;;7.80;80.07;97845.98;104837;1273;75415;-24
2022/09/29 01:57:42;;;;;;;4.60;1.40;;;;;;;7.61;80.90;97848.23;104738;1274;63670;-24
2022/09/29 02:00:14;;;;;;;4.90;1.70;;;;;;;8.02;80.75;97850.26;104759;1272;61932;-24
2022/09/29 02:03:15;;;;;;;3.30;2.10;;;;;;;8.55;79.48;97844.14;104878;1271;76612;-24
2022/09/29 02:05:48;;;;;;;3.10;1.80;;;;;;;8.58;79.08;97849.05;105045;1274;77105;-24
2022/09/29 02:08:48;;;;;;;9.70;2.10;;;;;;;8.40;79.44;97849.48;104923;1271;74490;-24
2022/09/29 02:11:16;;;;;;;3.90;2.20;;;;;;;8.13;80.00;97846.36;104621;1274;62790;-24
2022/09/29 02:14:14;;;;;;;9.00;2.50;;;;;;;7.92;80.67;97847.84;104677;1271;62126;-24
2022/09/29 02:16:46;;;;;;;3.80;1.80;;;;;;;7.80;81.51;97849.95;104948;1272;76342;-24
2022/09/29 02:19:18;;;;;;;5.20;1.70;;;;;;;8.47;80.98;97849.83;104697;1272;77471;-24
2022/09/29 02:21:45;;;;;;;8.80;1.90;;;;;;;9.10;79.15;97843.45;104627;1271;74359;-24
2022/09/29 02:24:12;;;;;;;5.60;2.50;;;;;;;9.16;78.50;97841.98;104607;1271;63033;-23
2022/09/29 02:26:39;;;;;;;3.50;1.60;;;;;;;8.98;78.53;97840.88;104941;1274;63209;-23
2022/09/29 02:29:06;;;;;;;7.80;2.60;;;;;;;8.74;79.10;97846.20;104939;1272;76573;-23
2022/09/29 02:31:33;;;;;;;4.10;1.90;;;;;;;8.51;79.50;97848.42;104676;1272;77336;-23
2022/09/29 02:34:01;;;;;;;4.20;1.60;;;;;;;8.29;79.78;97853.73;104742;1272;75487;-23
2022/09/29 02:36:33;;;;;;;5.20;1.30;;;;;;;8.09;80.46;97850.71;104687;1271;63565;-23
2022/09/29 02:39:06;;;;;;;5.50;1.60;;;;;;;8.53;80.42;97846.27;104702;1271;63078;-23
2022/09/29 02:41:48;;;;;;;5.20;1.70;;;;;;;9.08;79.02;97848.60;104499;1272;76595;-23
2022/09/29 02:44:27;;;;;;;3.10;1.60;;;;;;;9.12;78.62;97853.37;104710;1274;76974;-23
2022/09/29 02:46:57;;;;;;;5.90;1.50;;;;;;;8.92;78.62;97861.14;104687;1271;74212;-23
2022/09/29 02:49:40;;;;;;;9.20;1.70;;;;;;;8.67;79.10;97860.00;104890;1272;62550;-23
2022/09/29 02:52:15;;;;;;;6.10;2.00;;;;;;;8.40;79.46;97858.06;104477;1271;62724;-23
2022/09/29 02:54:58;;;;;;;1.40;1.10;;;;;;;8.20;80.37;97858.66;104600;1274;76588;-24
2022/09/29 02:57:33;;;;;;;4.40;1.90;;;;;;;8.72;80.22;97851.70;104673;1272;77382;-27
2022/09/29 03:00:10;;;;;;;3.30;1.60;;;;;;;9.25;79.02;97852.02;104809;1271;75440;-25
2022/09/29 03:02:37;;;;;;;3.60;1.70;;;;;;;9.26;78.66;97853.11;104506;1274;63486;-25
2022/09/29 03:05:06;;;;;;;2.00;1.30;;;;;;;9.07;78.99;97852.30;104791;1272;61836;-25
2022/09/29 03:07:34;;;;;;;3.40;1.80;;;;;;;8.85;79.62;97856.32;104756;1274;76639;-24
2022/09/29 03:10:01;;;;;;;2.30;1.60;;;;;;;8.62;79.96;97856.70;104742;1274;76656;-24
2022/09/29 03:12:28;;;;;;;1.90;1.30;;;;;;;8.42;80.55;97859.30;105035;1274;75157;-23
2022/09/29 03:14:56;;;;;;;3.30;1.40;;;;;;;8.81;80.51;97861.50;105056;1273;62106;-24
2022/09/29 03:17:23;;;;;;;1.50;1.30;;;;;;;9.34;79.12;97858.96;105056;1274;62998;-23
2022/09/29 03:19:50;;;;;;;3.30;1.90;;;;;;;9.41;78.77;97858.32;104714;1271;76834;-23
2022/09/29 03:22:17;;;;;;;4.80;1.70;;;;;;;9.24;78.75;97858.66;105035;1274;74991;-23
2022/09/29 03:24:45;;;;;;;2.60;1.90;;;;;;;9.03;79.28;97859.10;105033;1274;75549;-23
2022/09/29 03:27:12;;;;;;;3.80;2.30;;;;;;;8.82;79.91;97861.24;105072;1274;63044;-23
2022/09/29 03:29:39;;;;;;;1.90;1.50;;;;;;;8.63;80.46;97859.34;104830;1274;62879;-23
2022/09/29 03:32:06;;;;;;;2.40;1.60;;;;;;;9.02;80.68;97864.35;104999;1274;76357;-23
2022/09/29 03:34:33;;;;;;;6.20;2.20;;;;;;;9.57;79.49;97866.88;104878;1274;77146;-23
2022/09/29 03:37:00;;;;;;;2.70;2.30;;;;;;;9.64;78.94;97867.90;104848;1274;75511;-24
2022/09/29 03:39:27;;;;;;;2.00;1.80;;;;;;;9.48;78.79;97868.55;104820;1273;61988;-23
2022/09/29 03:41:54;;;;;;;2.20;1.80;;;;;;;9.25;79.39;97873.32;105028;1274;62797;-23
2022/09/29 03:44:21;;;;;;;3.30;2.20;;;;;;;9.01;79.79;97877.45;105056;1274;76687;-23
2022/09/29 03:46:48;;;;;;;5.80;1.40;;;;;;;8.81;80.61;97877.58;104865;1274;75955;-23
2022/09/29 03:49:15;;;;;;;1.60;1.50;;;;;;;9.22;80.73;97875.27;104686;1274;75277;-23
2022/09/29 03:51:42;;;;;;;3.10;2.00;;;;;;;9.77;79.70;97874.66;105046;1271;62090;-23
2022/09/29 03:54:10;;;;;;;6.10;1.70;;;;;;;9.83;79.08;97873.00;105038;1274;61064;-23
2022/09/29 03:56:37;;;;;;;2.70;1.80;;;;;;;9.66;79.02;97876.91;104894;1274;76642;-23
2022/09/29 03:59:08;;;;;;;4.30;1.60;;;;;;;9.41;79.44;97871.28;104842;1274;75812;-23
2022/09/29 04:01:36;;;;;;;2.90;1.90;;;;;;;9.16;79.96;97870.73;104750;1272;75381;-23
2022/09/29 04:04:05;;;;;;;1.80;1.20;;;;;;;8.95;80.61;97871.92;104692;1274;63621;-23
2022/09/29 04:06:32;;;;;;;3.30;1.40;;;;;;;9.35;80.40;97872.19;104794;1274;61931;-23
2022/09/29 04:09:00;;;;;;;1.90;1.50;;;;;;;9.86;79.07;97870.08;104739;1274;76638;-23
2022/09/29 04:11:27;;;;;;;3.70;1.80;;;;;;;9.90;78.42;97874.08;104609;1274;76199;-23
2022/09/29 04:13:54;;;;;;;3.60;2.00;;;;;;;9.70;78.53;97865.80;104613;1274;74267;-23
2022/09/29 04:16:21;;;;;;;1.90;1.70;;;;;;;9.42;78.91;97862.18;104669;1274;62054;-23
2022/09/29 04:18:48;;;;;;;2.90;1.80;;;;;;;9.15;79.43;97865.10;104585;1274;62023;-23
2022/09/29 04:21:16;;;;;;;1.60;1.20;;;;;;;8.92;80.27;97862.67;104578;1274;76698;-23
2022/09/29 04:23:43;;;;;;;2.00;1.20;;;;;;;9.27;80.39;97859.83;104644;1274;77075;-23
2022/09/29 04:26:09;;;;;;;6.80;1.50;;;;;;;9.77;79.43;97859.08;104615;1274;75445;-23
2022/09/29 04:28:37;;;;;;;2.20;1.70;;;;;;;9.81;78.76;97856.21;104641;1273;62059;-23
2022/09/29 04:31:04;;;;;;;2.70;2.00;;;;;;;9.62;79.00;97857.35;104825;1274;61626;-24
2022/09/29 04:33:31;;;;;;;3.60;2.40;;;;;;;9.37;79.40;97855.88;104801;1274;75481;-23
2022/09/29 04:35:58;;;;;;;9.60;3.30;;;;;;;9.12;80.11;97857.72;104923;1274;77194;-23
2022/09/29 04:38:26;;;;;;;4.00;2.20;;;;;;;8.93;80.70;97854.52;104732;1274;74705;-23
2022/09/29 04:40:53;;;;;;;5.70;2.80;;;;;;;9.32;80.56;97852.24;104817;1273;63065;-23
2022/09/29 04:43:20;;;;;;;3.80;2.80;;;;;;;9.85;79.38;97854.14;104768;1273;61890;-23
2022/09/29 04:45:47;;;;;;;7.70;3.20;;;;;;;9.91;78.63;97848.02;104766;1274;75563;-24
2022/09/29 04:48:14;;;;;;;5.40;3.20;;;;;;;9.73;78.72;97846.77;104704;1274;76915;-23
2022/09/29 04:50:42;;;;;;;7.80;4.30;;;;;;;9.48;79.39;97847.05;104544;1274;75538;-22
2022/09/29 04:53:10;;;;;;;6.40;4.80;;;;;;;9.26;79.70;97848.65;104586;1274;61039;-23
2022/09/29 04:55:37;;;;;;;5.00;3.40;;;;;;;9.09;80.61;97851.48;104591;1274;62063;-23
2022/09/29 04:58:04;;;;;;;4.40;3.90;;;;;;;9.50;80.40;97851.71;104666;1274;76276;-24
2022/09/29 05:00:31;;;;;;;5.20;4.10;;;;;;;10.06;79.29;97851.73;104718;1274;76913;-23
2022/09/29 05:02:59;;;;;;;5.20;3.60;;;;;;;10.17;78.67;97855.67;104779;1274;75358;-23
2022/09/29 05:05:26;;;;;;;4.80;4.00;;;;;;;10.06;78.57;97858.27;104706;1274;62032;-24
2022/09/29 05:07:53;;;;;;;6.70;4.30;;;;;;;9.89;79.14;97866.36;104590;1274;61798;-23
2022/09/29 05:10:20;;;;;;;4.50;3.60;;;;;;;9.74;79.41;97866.09;104669;1274;75494;-24
2022/09/29 05:12:49;;;;;;;4.60;2.00;;;;;;;9.62;80.11;97869.25;104669;1274;76000;-24
2022/09/29 05:15:17;;;;;;;3.40;2.30;;;;;;;10.13;80.26;97870.31;104437;1273;74684;-23
2022/09/29 05:17:50;;;;;;;3.10;1.90;;;;;;;10.77;78.42;97866.77;104472;1274;61930;-24
2022/09/29 05:20:17;;;;;;;1.70;1.50;;;;;;;10.89;77.88;97872.33;104835;1273;63083;-24
2022/09/29 05:22:44;;;;;;;5.40;1.40;;;;;;;10.78;77.35;97870.70;103963;1274;1141248;-24
2022/09/29 05:25:11;;;;;;;4.10;1.80;;;;;;;10.56;77.86;97868.84;104599;1274;76822;-24
2022/09/29 05:27:38;;;;;;;6.80;1.90;;;;;;;10.40;78.19;97869.35;105015;1274;75519;-24
2022/09/29 05:30:06;;;;;;;2.00;1.20;;;;;;;10.29;79.04;97865.23;104870;1274;64698;-23
2022/09/29 05:32:33;;;;;;;2.60;1.50;;;;;;;10.79;79.17;97867.65;104601;1273;61840;-24
2022/09/29 05:35:02;;;;;;;2.10;1.50;;;;;;;11.43;77.63;97868.89;104756;1274;76448;-24
2022/09/29 05:37:30;;;;;;;1.60;1.30;;;;;;;11.62;76.79;97870.68;104688;1274;75938;-23
2022/09/29 05:39:57;;;;;;;1.90;1.70;;;;;;;11.55;76.63;97868.61;104643;1274;74345;-23
2022/09/29 05:42:24;;;;;;;1.60;1.50;;;;;;;11.41;77.02;97866.02;104793;1274;62742;-23
2022/09/29 05:44:51;;;;;;;2.40;2.00;;;;;;;11.27;77.43;97863.15;104825;1274;62097;-24
2022/09/29 05:47:19;;;;;;;4.20;1.30;;;;;;;11.15;77.93;97866.23;104812;1274;75249;-24
2022/09/29 05:49:45;;;;;;;4.50;1.30;;;;;;;11.54;77.25;97869.23;104581;1274;77112;-23
2022/09/29 05:52:12;;;;;;;2.50;1.40;;;;;;;12.04;75.31;97874.33;104720;1274;73993;-24
2022/09/29 05:54:39;;;;;;;2.10;1.60;;;;;;;12.13;74.93;97877.02;104788;1273;61828;-24
2022/09/29 05:57:06;;;;;;;1.90;1.50;;;;;;;12.00;74.95;97872.88;104720;1274;61756;-24
2022/09/29 05:59:33;;;;;;;3.70;1.60;;;;;;;11.83;75.65;97875.93;104637;1274;76374;-23
2022/09/29 06:02:00;;;;;;;2.30;1.50;;;;;;;11.64;75.80;97876.71;104596;1274;76966;-24
2022/09/29 06:04:28;;;;;;;1.40;1.10;;;;;;;11.50;76.69;97876.52;104564;1274;74368;-24
2022/09/29 06:06:56;;;;;;;1.70;1.30;;;;;;;11.92;76.76;97874.79;104639;1273;63138;-25
2022/09/29 06:09:23;;;;;;;3.50;1.50;;;;;;;12.51;75.22;97875.88;104870;1273;61990;-24
2022/09/29 06:11:50;;;;;;;2.70;1.50;;;;;;;12.60;73.63;97874.69;104840;1274;76606;-24
2022/09/29 06:14:17;;;;;;;2.50;1.80;;;;;;;12.48;73.81;97873.48;104956;1274;76696;-23
2022/09/29 06:16:44;;;;;;;3.20;1.80;;;;;;;12.30;74.32;97876.64;104932;1272;75247;-24
2022/09/29 06:19:12;;;;;;;1.90;1.50;;;;;;;12.13;74.67;97876.52;104997;1274;62584;-24
2022/09/29 06:21:39;;;;;;;5.60;1.70;;;;;;;11.96;75.30;97879.23;104807;1274;63070;-24
2022/09/29 06:24:06;;;;;;;2.10;1.20;;;;;;;11.88;75.71;97883.08;104847;1272;75555;-24
2022/09/29 06:26:34;;;;;;;4.50;1.40;;;;;;;12.44;75.28;97884.47;104936;1274;75842;-24
2022/09/29 06:29:01;;;;;;;1.90;1.40;;;;;;;13.09;73.69;97878.81;104690;1273;74058;-24
2022/09/29 06:31:29;;;;;;;1.90;1.50;;;;;;;13.23;72.03;97880.84;104948;1274;61057;-24
2022/09/29 06:34:02;;;;;;;3.90;1.80;;;;;;;13.11;72.04;97877.08;104538;1272;62952;-24
2022/09/29 06:39:26;;;;;;;2.40;2.00;;;;;;;12.70;73.05;97871.46;104730;1274;76898;-24
2022/09/29 06:41:55;;;;;;;4.00;2.10;;;;;;;12.55;73.62;97874.80;105040;1274;74290;-24
2022/09/29 06:44:29;;;;;;;3.60;1.30;;;;;;;12.51;74.40;97871.73;104650;1274;63589;-24
2022/09/29 06:46:56;;;;;;;3.00;1.50;;;;;;;13.12;74.14;97864.77;104717;1274;62843;-24
2022/09/29 06:49:23;;;;;;;3.00;2.00;;;;;;;13.78;72.56;97863.05;105064;1274;75580;-24
2022/09/29 06:51:51;;;;;;;2.70;2.20;;;;;;;14.00;71.56;97861.83;104969;1274;76954;-24
2022/09/29 06:54:19;;;;;;;5.40;2.60;;;;;;;14.02;71.85;97869.21;105047;1273;75458;-23
2022/09/29 06:56:50;;;;;;;2.90;1.70;;;;;;;13.97;70.73;97870.02;104462;1274;62984;-24
2022/09/29 06:59:18;;;;;;;2.30;1.70;;;;;;;14.01;71.69;97869.88;104667;1272;63074;-22
2022/09/29 07:01:48;;;;;;;4.60;2.00;;;;;;;14.13;71.55;97861.48;104664;1274;76145;-23
2022/09/29 07:04:18;;;;;;;7.20;2.60;;;;;;;14.31;70.61;97858.42;104723;1274;75785;-23
2022/09/29 07:06:45;;;;;;;7.90;2.50;;;;;;;14.41;70.96;97857.89;105003;1274;74218;-23
2022/09/29 07:09:14;;;;;;;7.90;2.20;;;;;;;14.41;69.12;97862.84;104791;1274;61786;-23
2022/09/29 07:11:46;;;;;;;6.90;1.80;;;;;;;14.39;69.71;97868.59;104739;1274;61666;-24
2022/09/29 07:14:14;;;;;;;5.80;1.60;;;;;;;14.57;69.13;97868.15;104704;1271;75653;-23
2022/09/29 07:16:42;;;;;;;6.70;1.90;;;;;;;15.05;66.98;97868.73;104687;1274;76101;-23
2022/09/29 07:19:09;;;;;;;7.10;1.80;;;;;;;15.24;66.23;97868.23;104985;1273;75186;-23
2022/09/29 07:21:36;;;;;;;8.30;1.90;;;;;;;15.15;65.15;97870.34;104623;1274;62925;-23
2022/09/29 07:24:03;;;;;;;7.00;1.90;;;;;;;15.07;66.04;97868.59;104698;1274;61691;-24
2022/09/29 07:26:30;;;;;;;6.30;1.90;;;;;;;15.00;65.95;97863.38;104612;1274;76536;-23
2022/09/29 07:28:57;;;;;;;6.20;2.00;;;;;;;14.89;65.32;97863.58;104807;1274;74841;-23
2022/09/29 07:31:24;;;;;;;8.70;2.40;;;;;;;14.83;64.57;97864.42;105051;1272;74386;-23
2022/09/29 07:33:52;;;;;;;19.60;2.40;;;;;;;14.85;65.66;97864.09;104972;1274;62036;-24
2022/09/29 07:36:19;;;;;;;9.00;2.00;;;;;;;14.85;65.34;97867.31;105075;1274;61854;-24
2022/09/29 07:38:47;;;;;;;8.10;1.50;;;;;;;14.89;65.42;97866.40;104976;1271;76661;-25
2022/09/29 07:41:14;;;;;;;10.10;1.90;;;;;;;14.91;65.97;97872.63;104765;1274;75989;-25
2022/09/29 07:43:41;;;;;;;10.20;2.10;;;;;;;14.96;65.53;97870.31;105129;1274;74486;-25
2022/09/29 07:46:08;;;;;;;8.30;2.20;;;;;;;15.04;66.44;97872.27;105086;1274;62080;-26
2022/09/29 07:48:36;;;;;;;10.00;1.90;;;;;;;15.19;66.02;97869.66;105065;1271;62759;-25
2022/09/29 07:51:09;;;;;;;9.00;1.70;;;;;;;15.51;65.20;97868.27;104700;1274;76307;-25
2022/09/29 07:53:36;;;;;;;8.80;1.50;;;;;;;16.37;61.53;97873.14;105098;1274;76718;-25
2022/09/29 07:56:11;;;;;;;5.80;1.30;;;;;;;16.59;57.79;97871.65;105088;1274;75393;-23
2022/09/29 07:58:38;;;;;;;17.60;1.80;;;;;;;16.77;58.99;97877.75;104885;1274;62810;-23
2022/09/29 08:01:09;;;;;;;9.20;1.90;;;;;;;17.00;59.14;97874.20;104866;1274;62046;-30
2022/09/29 08:03:37;;;;;;;12.30;1.90;;;;;;;16.86;57.30;97870.96;104605;1274;76749;-24
2022/09/29 08:06:06;;;;;;;11.50;1.70;;;;;;;16.76;57.01;97870.51;104477;1275;77035;-23
2022/09/29 08:08:37;;;;;;;7.10;1.70;;;;;;;16.46;56.73;97870.89;104449;1274;73680;-23
2022/09/29 08:11:09;;;;;;;11.70;1.30;;;;;;;16.45;58.89;97866.16;104785;1274;61891;-23
2022/09/29 08:13:46;;;;;;;11.40;1.90;;;;;;;16.45;59.08;97864.45;104683;1274;61399;-24
2022/09/29 08:16:13;;;;;;;16.00;2.20;;;;;;;16.42;59.44;97864.63;104604;1274;76708;-24
2022/09/29 08:18:41;;;;;;;10.20;1.60;;;;;;;16.48;59.08;97865.08;104919;1274;77053;-25
2022/09/29 08:21:09;;;;;;;13.00;2.90;;;;;;;16.63;59.87;97864.36;104908;1274;75217;-24
2022/09/29 08:23:39;;;;;;;7.50;1.50;;;;;;;16.92;59.84;97865.66;104631;1273;62960;-24
2022/09/29 08:26:12;;;;;;;11.30;2.00;;;;;;;17.22;57.91;97859.94;104602;1274;63364;-24
2022/09/29 08:28:40;;;;;;;11.80;1.90;;;;;;;17.38;55.20;97857.80;104624;1274;76544;-24
2022/09/29 08:31:08;;;;;;;9.70;1.70;;;;;;;17.47;55.18;97859.89;104589;1274;76979;-24
2022/09/29 08:33:35;;;;;;;8.30;1.70;;;;;;;17.48;52.26;97856.07;104749;1274;74397;-24
2022/09/29 08:36:04;;;;;;;18.50;3.90;;;;;;;17.26;52.46;97856.91;104642;1273;61988;-24
2022/09/29 08:38:31;;;;;;;7.30;1.30;;;;;;;17.41;53.19;97862.49;104640;1274;61742;-23
2022/09/29 08:41:02;;;;;;;7.60;1.90;;;;;;;17.58;51.84;97859.19;104795;1274;75940;-24
2022/09/29 08:43:32;;;;;;;10.50;1.90;;;;;;;17.77;52.24;97859.98;104759;1274;77034;-25
2022/09/29 08:46:05;;;;;;;7.90;1.40;;;;;;;17.92;51.14;97865.63;104599;1274;74052;-24
2022/09/29 08:48:34;;;;;;;13.30;2.30;;;;;;;18.17;51.64;97869.02;104555;1274;61818;-25
2022/09/29 08:51:26;;;;;;;10.30;1.50;;;;;;;18.54;51.21;97867.98;104639;1275;62992;-22
2022/09/29 08:54:32;;;;;;;9.80;2.40;;;;;;;18.80;48.46;97858.02;104610;1274;76454;-24
2022/09/29 08:57:05;;;;;;;12.60;2.40;;;;;;;19.03;48.79;97860.73;104579;1274;77003;-24
2022/09/29 08:59:32;;;;;;;15.70;2.30;;;;;;;19.26;48.75;97861.95;104632;1274;75195;-24
2022/09/29 09:02:23;;;;;;;17.50;2.10;;;;;;;19.50;47.45;97858.88;104744;1273;61210;-24
2022/09/29 09:05:06;;;;;;;16.00;1.80;;;;;;;19.58;46.80;97855.86;104819;1274;62959;-24
2022/09/29 09:07:50;;;;;;;3.50;0.90;;;;;;;19.71;46.01;97856.47;105010;1274;76532;-24
2022/09/29 09:10:26;;;;;;;14.60;2.40;;;;;;;19.61;44.65;97849.84;104724;1274;76933;-25
2022/09/29 09:13:29;;;;;;;17.20;2.60;;;;;;;19.72;45.51;97849.40;104606;1274;75423;-24
2022/09/29 09:16:08;;;;;;;7.90;1.60;;;;;;;19.81;45.57;97851.29;104182;1277;63084;-24
2022/09/29 09:18:51;;;;;;;8.70;1.50;;;;;;;20.12;44.91;97851.29;104539;1273;62214;-24
2022/09/29 09:21:39;;;;;;;8.00;1.40;;;;;;;19.92;43.77;97849.27;104595;1274;76323;-24
2022/09/29 09:24:21;;;;;;;7.30;1.50;;;;;;;19.57;43.53;97849.65;104858;1274;77327;-24
2022/09/29 09:26:50;;;;;;;11.00;1.70;;;;;;;19.63;45.68;97855.35;104783;1274;74734;-24
2022/09/29 09:29:34;;;;;;;2.40;0.70;;;;;;;19.75;43.64;97845.23;104572;1274;62786;-24
2022/09/29 09:32:12;;;;;;;10.90;1.50;;;;;;;19.65;45.23;97849.23;104666;1274;62882;-24
2022/09/29 09:35:11;;;;;;;9.50;1.70;;;;;;;19.85;43.84;97843.05;104726;1274;74638;-24
2022/09/29 09:37:49;;;;;;;4.30;1.70;;;;;;;20.20;45.01;97843.92;104931;1274;75720;-24
2022/09/29 09:40:30;;;;;;;6.10;1.60;;;;;;;20.45;44.31;97842.23;104989;1274;74876;-24
2022/09/29 09:43:29;;;;;;;9.90;2.00;;;;;;;20.63;43.21;97840.43;104575;1273;62122;-24
2022/09/29 09:46:03;;;;;;;2.90;0.90;;;;;;;20.13;43.68;97836.95;104382;1274;61165;-24
2022/09/29 09:48:34;;;;;;;2.90;1.20;;;;;;;19.44;44.38;97831.90;104690;1277;75897;-24
2022/09/29 09:51:15;;;;;;;6.80;1.20;;;;;;;18.82;46.67;97834.33;104465;1274;77083;-24
2022/09/29 09:53:42;;;;;;;5.40;1.60;;;;;;;18.81;47.42;97838.25;104484;1274;75526;-24
2022/09/29 09:56:15;;;;;;;5.90;1.50;;;;;;;18.83;48.60;97842.06;104592;1274;61981;-24
2022/09/29 09:58:57;;;;;;;;;;;;;;;18.80;48.15;97837.16;104619;1273;62184;-24
2022/09/29 10:01:24;;;;;;;5.70;1.50;;;;;;;18.74;48.75;97834.79;104631;1273;76739;-24
2022/09/29 10:03:52;;;;;;;7.50;1.60;;;;;;;19.00;48.71;97832.98;104758;1274;76979;-24
2022/09/29 10:06:19;;;;;;;5.80;1.10;;;;;;;19.42;47.64;97834.44;104635;1274;73794;-23
2022/09/29 10:08:46;;;;;;;3.60;1.50;;;;;;;19.25;46.91;97830.80;104586;1274;63132;-24
2022/09/29 10:11:20;;;;;;;3.80;1.30;;;;;;;19.30;47.11;97831.73;104591;1275;61712;-24
2022/09/29 10:13:47;;;;;;;3.50;1.10;;;;;;;19.62;47.88;97832.60;104672;1273;76605;-24
2022/09/29 10:16:16;;;;;;;2.50;1.00;;;;;;;19.80;47.27;97834.94;104603;1274;77425;-24
2022/09/29 10:18:53;;;;;;;2.20;1.20;;;;;;;19.76;46.66;97835.39;104422;1275;75736;-24
2022/09/29 10:21:22;;;;;;;3.90;1.10;;;;;;;19.85;47.53;97840.66;104671;1274;63077;-24
2022/09/29 10:23:50;;;;;;;2.40;1.10;;;;;;;20.44;46.85;97838.40;104788;1273;61706;-24
2022/09/29 10:26:27;;;;;;;3.40;1.60;;;;;;;20.78;45.94;97846.33;104644;1274;75541;-24
2022/09/29 10:28:57;;;;;;;3.20;1.50;;;;;;;20.89;44.31;97846.39;104935;1274;76004;-24
2022/09/29 10:31:33;;;;;;;6.50;1.30;;;;;;;20.83;45.44;97854.52;104722;1275;75599;-24
2022/09/29 10:34:18;;;;;;;1.90;1.20;;;;;;;20.38;44.86;97853.00;104577;1274;63104;-24
2022/09/29 10:36:55;;;;;;;1.30;1.10;;;;;;;20.54;46.31;97859.52;104355;1274;61995;-24
2022/09/29 10:39:32;;;;;;;3.60;1.40;;;;;;;20.88;45.55;97859.23;104709;1274;75494;-24
2022/09/29 10:41:59;;;;;;;2.60;1.50;;;;;;;20.88;45.32;97856.90;104746;1274;75112;-24
2022/09/29 10:44:30;;;;;;;2.80;1.50;;;;;;;20.78;45.24;97853.05;104788;1274;75629;-25
2022/09/29 10:46:58;;;;;;;2.20;1.20;;;;;;;21.19;46.00;97852.02;104748;1275;63065;-25
2022/09/29 10:49:27;;;;;;;0.90;0.80;;;;;;;21.56;44.70;97850.34;104710;1274;62063;-25
2022/09/29 10:51:58;;;;;;;1.10;0.90;;;;;;;21.65;44.98;97850.52;104759;1274;76300;-24
2022/09/29 10:54:26;;;;;;;3.60;1.10;;;;;;;21.94;43.90;97849.27;104647;1274;76617;-25
2022/09/29 10:56:54;;;;;;;1.80;1.40;;;;;;;21.85;43.74;97848.36;104758;1274;75408;-25
2022/09/29 10:59:22;;;;;;;2.70;0.90;;;;;;;21.73;44.50;97850.56;104596;1274;61834;-24
2022/09/29 11:01:54;;;;;;;2.90;1.20;;;;;;;21.89;44.70;97845.92;104638;1274;61934;-24
2022/09/29 11:04:29;;;;;;;1.00;0.80;;;;;;;22.05;43.94;97842.65;104607;1274;76711;-24
2022/09/29 11:06:56;;;;;;;1.70;1.10;;;;;;;21.59;44.24;97843.69;104508;1274;77012;-25
2022/09/29 11:09:27;;;;;;;6.80;1.10;;;;;;;21.32;45.63;97842.19;104667;1274;75454;-24
2022/09/29 11:11:56;;;;;;;2.50;1.30;;;;;;;21.73;45.22;97844.20;104956;1274;62886;-25
2022/09/29 11:14:36;;;;;;;1.60;0.90;;;;;;;21.67;44.46;97846.29;104822;1274;62109;-25
2022/09/29 11:17:18;;;;;;;1.30;1.00;;;;;;;21.27;45.31;97837.51;104874;1274;76594;-24
2022/09/29 11:19:45;;;;;;;4.20;1.40;;;;;;;21.00;46.31;97842.65;104869;1274;76154;-25
2022/09/29 11:22:22;;;;;;;2.50;1.30;;;;;;;20.87;47.53;97839.25;104903;1274;75404;-24
2022/09/29 11:24:49;;;;;;;3.80;1.20;;;;;;;20.83;46.78;97842.34;104776;1274;61968;-24
2022/09/29 11:27:40;;;;;;;4.30;1.10;;;;;;;20.81;46.45;97842.08;104967;1274;61675;-24
2022/09/29 11:30:09;;;;;;;2.60;1.00;;;;;;;20.63;47.88;97846.86;104844;1274;75590;-24
2022/09/29 11:32:40;;;;;;;4.10;1.10;;;;;;;20.50;47.84;97846.50;105054;1274;76624;-24
2022/09/29 11:35:13;;;;;;;2.10;1.10;;;;;;;20.34;48.50;97846.73;104720;1274;76108;-24
2022/09/29 11:37:56;;;;;;;1.60;1.00;;;;;;;20.23;48.64;97843.06;104682;1274;63408;-24
2022/09/29 11:40:36;;;;;;;;;;;;;;;20.11;49.05;97844.54;104605;1275;61774;-25
2022/09/29 11:43:26;;;;;;;1.60;1.30;;;;;;;19.97;49.17;97840.88;104911;1274;76734;-24
2022/09/29 11:46:10;;;;;;;3.90;1.10;;;;;;;19.89;49.98;97840.48;105121;1274;76996;-24
2022/09/29 11:48:47;;;;;;;2.60;1.50;;;;;;;19.83;49.79;97842.09;104742;1274;74527;-24
2022/09/29 11:51:33;;;;;;;4.30;1.30;;;;;;;19.71;50.34;97837.41;104954;1274;63081;-24